Time;durP1;ratioP1;P1;durP2;ratioP2;P2;SDS_P1;SDS_P2;PMS_P1;PMS_P2;Temp;Humidity;BMP_temperature;BMP_pressure;BME280_temperature;BME280_humidity;BME280_pressure;Samples;Min_cycle;Max_cycle;Signal;HPM_P1;HPM_P2
2023/07/07 00:01:03;;;;;;;3.23;1.90;;;25.00;47.70;;;;;;4995081;28;20200;-68
2023/07/07 00:03:29;;;;;;;2.17;1.90;;;25.00;47.70;;;;;;4993956;28;20419;-67
2023/07/07 00:05:54;;;;;;;3.00;1.80;;;25.00;47.80;;;;;;4995112;28;20928;-68
2023/07/07 00:08:20;;;;;;;2.87;2.27;;;25.00;47.70;;;;;;4995012;28;20209;-67
2023/07/07 00:10:47;;;;;;;2.40;2.20;;;25.00;47.70;;;;;;4995107;28;20264;-67
2023/07/07 00:13:14;;;;;;;2.60;2.40;;;25.00;47.80;;;;;;4995037;28;20200;-68
2023/07/07 00:15:44;;;;;;;3.60;2.70;;;25.00;47.70;;;;;;4994978;28;20427;-67
2023/07/07 00:18:10;;;;;;;2.50;2.00;;;25.00;47.70;;;;;;4994735;28;20486;-68
2023/07/07 00:20:36;;;;;;;2.93;2.40;;;25.00;47.70;;;;;;4993688;28;20428;-69
2023/07/07 00:23:01;;;;;;;2.90;2.13;;;25.00;47.80;;;;;;4994813;28;20420;-68
2023/07/07 00:25:27;;;;;;;2.70;2.33;;;25.00;47.80;;;;;;4994807;28;20177;-68
2023/07/07 00:27:52;;;;;;;2.10;1.90;;;25.00;47.80;;;;;;4977233;28;20208;-67
2023/07/07 00:30:18;;;;;;;2.40;2.13;;;25.00;47.80;;;;;;4993421;28;20529;-67
2023/07/07 00:32:44;;;;;;;2.60;2.00;;;25.00;47.80;;;;;;4994614;28;20185;-68
2023/07/07 00:35:09;;;;;;;2.10;1.83;;;25.00;47.70;;;;;;4994577;28;20181;-68
2023/07/07 00:37:35;;;;;;;2.90;2.07;;;25.00;47.80;;;;;;4994511;28;20625;-68
2023/07/07 00:40:03;;;;;;;1.90;1.80;;;25.00;47.80;;;;;;4994498;28;20197;-67
2023/07/07 00:42:29;;;;;;;2.80;2.03;;;25.00;47.70;;;;;;4994449;28;20420;-68
2023/07/07 00:45:18;;;;;;;2.20;1.90;;;25.00;47.80;;;;;;4994438;28;20416;-68
2023/07/07 00:48:01;;;;;;;2.90;2.00;;;25.00;47.70;;;;;;4992991;28;20220;-68
2023/07/07 00:50:32;;;;;;;2.47;1.90;;;25.00;47.70;;;;;;4994258;28;20447;-68
2023/07/07 00:52:58;;;;;;;2.53;2.10;;;25.00;47.80;;;;;;4994247;28;20944;-68
2023/07/07 00:55:32;;;;;;;2.20;2.00;;;25.00;47.80;;;;;;4994512;28;20424;-67
2023/07/07 00:58:03;;;;;;;2.63;2.20;;;25.00;47.70;;;;;;4994119;28;20192;-68
2023/07/07 01:00:29;;;;;;;2.27;2.07;;;25.00;47.80;;;;;;4994106;28;20490;-68
2023/07/07 01:02:57;;;;;;;2.37;2.17;;;25.00;47.70;;;;;;4994115;28;20446;-67
2023/07/07 01:05:28;;;;;;;2.50;2.20;;;25.00;47.80;;;;;;4993988;28;20462;-68
2023/07/07 01:08:00;;;;;;;2.70;2.00;;;25.00;47.70;;;;;;4993825;28;20439;-67
2023/07/07 01:10:26;;;;;;;2.43;1.90;;;25.00;47.80;;;;;;4993932;28;20396;-68
2023/07/07 01:12:51;;;;;;;2.67;2.20;;;25.00;47.80;;;;;;4993893;28;20405;-68
2023/07/07 01:15:20;;;;;;;2.90;2.27;;;25.00;47.80;;;;;;4993861;28;20427;-68
2023/07/07 01:18:12;;;;;;;2.00;1.60;;;25.00;47.80;;;;;;4993680;28;20185;-68
2023/07/07 01:21:00;;;;;;;3.27;2.13;;;25.00;47.70;;;;;;4983302;28;20420;-68
2023/07/07 01:23:29;;;;;;;2.93;2.17;;;25.00;47.80;;;;;;4993782;28;20388;-67
2023/07/07 01:26:02;;;;;;;2.80;2.10;;;25.00;47.80;;;;;;4993632;28;20440;-68
2023/07/07 01:28:41;;;;;;;2.23;2.00;;;25.00;47.80;;;;;;4993482;28;20984;-67
2023/07/07 01:31:16;;;;;;;2.83;2.40;;;25.00;47.80;;;;;;4993204;28;20901;-68
2023/07/07 01:33:44;;;;;;;3.13;2.20;;;25.00;47.80;;;;;;4993552;28;20392;-68
2023/07/07 01:36:09;;;;;;;2.13;1.70;;;25.00;47.80;;;;;;4993545;28;20400;-68
2023/07/07 01:38:41;;;;;;;2.53;2.33;;;25.00;47.80;;;;;;4993424;28;20428;-68
2023/07/07 01:41:37;;;;;;;2.17;1.97;;;25.00;47.80;;;;;;4993363;28;20169;-67
2023/07/07 01:44:12;;;;;;;2.57;2.30;;;25.00;47.80;;;;;;4993430;28;20886;-68
2023/07/07 01:46:48;;;;;;;2.30;2.10;;;25.00;47.80;;;;;;4993321;28;20553;-68
2023/07/07 01:49:37;;;;;;;2.47;1.90;;;25.00;47.80;;;;;;4993451;28;20517;-67
2023/07/07 01:52:17;;;;;;;2.37;1.90;;;25.00;47.80;;;;;;4993287;28;20404;-67
2023/07/07 01:54:50;;;;;;;2.23;2.03;;;25.00;47.80;;;;;;4993109;28;20435;-68
2023/07/07 01:57:16;;;;;;;3.40;2.13;;;25.00;47.80;;;;;;4993373;28;20424;-68
2023/07/07 01:59:43;;;;;;;3.30;2.23;;;25.00;47.80;;;;;;4993161;28;20831;-68
2023/07/07 02:02:08;;;;;;;2.90;2.33;;;24.90;47.70;;;;;;4992997;28;20440;-67
2023/07/07 02:04:34;;;;;;;2.43;2.00;;;25.00;47.80;;;;;;4993069;28;20936;-68
2023/07/07 02:07:00;;;;;;;3.03;2.00;;;25.00;47.80;;;;;;4992886;28;20204;-68
2023/07/07 02:09:26;;;;;;;2.03;1.70;;;25.00;47.80;;;;;;4992878;28;20212;-68
2023/07/07 02:11:52;;;;;;;2.17;1.97;;;25.00;47.80;;;;;;4992989;28;20197;-67
2023/07/07 02:14:18;;;;;;;2.73;2.30;;;25.00;47.80;;;;;;4992890;28;20432;-69
2023/07/07 02:16:43;;;;;;;2.40;2.20;;;25.00;47.80;;;;;;4992806;28;20193;-68
2023/07/07 02:19:09;;;;;;;2.90;2.50;;;25.00;47.70;;;;;;4992859;28;20177;-68
2023/07/07 02:21:35;;;;;;;2.60;2.20;;;25.00;47.80;;;;;;4992775;28;20177;-67
2023/07/07 02:24:00;;;;;;;2.23;1.60;;;25.00;47.70;;;;;;4992736;28;20180;-68
2023/07/07 02:26:26;;;;;;;2.07;1.87;;;25.00;47.70;;;;;;4992697;28;20172;-68
2023/07/07 02:28:51;;;;;;;2.70;2.30;;;25.00;47.70;;;;;;4991278;28;20205;-68
2023/07/07 02:31:17;;;;;;;2.40;2.20;;;25.00;47.70;;;;;;4992686;28;20672;-68
2023/07/07 02:33:43;;;;;;;2.63;1.77;;;25.00;47.70;;;;;;4992628;28;20169;-67
2023/07/07 02:36:11;;;;;;;3.90;2.13;;;25.00;47.70;;;;;;4992627;28;20412;-67
2023/07/07 02:38:37;;;;;;;2.20;2.00;;;25.00;47.70;;;;;;4992605;28;20193;-67
2023/07/07 02:41:03;;;;;;;2.80;2.17;;;25.00;47.70;;;;;;4992734;28;20423;-66
2023/07/07 02:43:29;;;;;;;2.70;2.37;;;25.00;47.70;;;;;;4995433;28;20180;-66
2023/07/07 02:45:55;;;;;;;4.00;2.40;;;24.90;47.60;;;;;;4997030;28;20419;-66
2023/07/07 02:48:22;;;;;;;3.00;2.30;;;25.00;47.70;;;;;;4997002;28;20204;-66
2023/07/07 02:50:58;;;;;;;3.00;2.27;;;24.90;47.60;;;;;;4997133;28;20435;-67
2023/07/07 02:53:26;;;;;;;2.97;2.30;;;25.00;47.70;;;;;;4995481;28;20411;-68
2023/07/07 02:55:53;;;;;;;2.40;2.20;;;24.90;47.60;;;;;;4996673;28;20404;-67
2023/07/07 02:58:18;;;;;;;2.93;2.20;;;24.90;47.70;;;;;;4996561;28;20432;-68
2023/07/07 03:00:44;;;;;;;2.33;2.10;;;24.90;47.70;;;;;;4996538;28;20444;-67
2023/07/07 03:03:10;;;;;;;2.13;1.93;;;24.90;47.60;;;;;;4996423;28;20176;-67
2023/07/07 03:05:36;;;;;;;3.53;2.30;;;24.90;47.70;;;;;;4996404;28;20288;-67
2023/07/07 03:08:01;;;;;;;2.90;2.23;;;24.90;47.70;;;;;;4996304;28;20539;-67
2023/07/07 03:10:29;;;;;;;2.83;2.20;;;24.90;47.70;;;;;;4996435;28;20300;-67
2023/07/07 03:12:55;;;;;;;3.23;2.30;;;24.90;47.70;;;;;;4996589;28;20647;-67
2023/07/07 03:15:21;;;;;;;2.70;2.23;;;24.90;47.70;;;;;;4994865;28;20412;-67
2023/07/07 03:17:49;;;;;;;2.70;2.30;;;24.90;47.70;;;;;;4996078;28;20189;-67
2023/07/07 03:20:15;;;;;;;3.13;2.40;;;24.90;47.70;;;;;;4996221;28;20200;-67
2023/07/07 03:22:40;;;;;;;2.90;2.70;;;24.90;47.70;;;;;;4996240;28;20525;-67
2023/07/07 03:25:06;;;;;;;2.33;2.13;;;24.90;47.70;;;;;;4995997;28;20169;-67
2023/07/07 03:27:32;;;;;;;2.03;1.80;;;24.90;47.70;;;;;;4996080;28;20231;-68
2023/07/07 03:29:58;;;;;;;2.50;2.30;;;24.90;47.70;;;;;;4995847;28;20456;-68
2023/07/07 03:32:26;;;;;;;3.27;2.47;;;24.90;47.70;;;;;;4996026;28;20170;-67
2023/07/07 03:34:51;;;;;;;2.90;2.57;;;24.90;47.70;;;;;;4995977;28;20215;-69
2023/07/07 03:37:17;;;;;;;2.13;1.93;;;24.90;47.70;;;;;;4995797;28;20936;-67
2023/07/07 03:39:43;;;;;;;2.00;1.80;;;24.90;47.70;;;;;;4995792;28;20545;-67
2023/07/07 03:42:09;;;;;;;2.30;2.10;;;24.90;47.70;;;;;;4995809;28;20180;-67
2023/07/07 03:44:38;;;;;;;2.40;2.20;;;24.90;47.70;;;;;;4995889;28;20676;-68
2023/07/07 03:47:03;;;;;;;2.40;2.10;;;24.90;47.60;;;;;;4995909;28;21006;-68
2023/07/07 03:49:29;;;;;;;2.50;2.23;;;24.90;47.60;;;;;;4995711;28;20460;-67
2023/07/07 03:51:54;;;;;;;3.83;2.53;;;24.90;47.60;;;;;;4995622;28;20165;-68
2023/07/07 03:54:20;;;;;;;3.33;2.50;;;24.90;47.60;;;;;;4995270;28;20165;-66
2023/07/07 03:56:45;;;;;;;2.67;2.47;;;24.90;47.60;;;;;;4995452;28;20247;-67
2023/07/07 03:59:11;;;;;;;2.47;2.07;;;24.90;47.60;;;;;;4995435;28;20185;-67
2023/07/07 04:01:37;;;;;;;2.07;1.87;;;24.90;47.60;;;;;;4994177;28;20188;-67
2023/07/07 04:04:02;;;;;;;3.20;2.37;;;24.90;47.60;;;;;;4995424;28;20173;-67
2023/07/07 04:06:28;;;;;;;2.80;2.50;;;24.90;48.20;;;;;;4995285;28;20196;-66
2023/07/07 04:08:53;;;;;;;2.40;2.20;;;24.90;47.60;;;;;;4995478;28;20205;-66
2023/07/07 04:11:21;;;;;;;2.73;2.50;;;24.90;47.60;;;;;;4995315;28;20239;-67
2023/07/07 04:13:49;;;;;;;3.57;2.40;;;24.90;47.60;;;;;;4995183;28;20184;-67
2023/07/07 04:16:21;;;;;;;3.00;2.60;;;24.90;47.60;;;;;;4995212;28;20814;-67
2023/07/07 04:18:47;;;;;;;2.63;2.20;;;24.90;47.60;;;;;;4995111;28;20389;-67
2023/07/07 04:21:15;;;;;;;3.23;2.43;;;24.90;47.60;;;;;;4995308;28;20412;-68
2023/07/07 04:23:42;;;;;;;2.60;2.03;;;24.90;47.60;;;;;;4995027;28;20507;-67
2023/07/07 04:26:09;;;;;;;2.80;2.27;;;24.90;47.60;;;;;;4994859;28;20985;-67
2023/07/07 04:28:36;;;;;;;2.20;2.00;;;24.90;47.60;;;;;;4994982;28;20993;-67
2023/07/07 04:31:03;;;;;;;2.33;2.13;;;24.90;47.60;;;;;;4994843;28;20917;-67
2023/07/07 04:33:30;;;;;;;2.57;2.33;;;24.90;47.70;;;;;;4994982;28;20446;-67
2023/07/07 04:35:58;;;;;;;3.50;2.20;;;24.90;47.70;;;;;;4995035;28;20783;-68
2023/07/07 04:38:30;;;;;;;3.70;2.40;;;24.90;48.30;;;;;;4994733;28;20471;-69
2023/07/07 04:41:25;;;;;;;4.73;2.20;;;25.00;47.90;;;;;;4995140;28;20400;-69
2023/07/07 04:43:59;;;;;;;2.50;2.30;;;25.00;47.90;;;;;;4990997;28;20421;-67
2023/07/07 04:46:30;;;;;;;2.83;2.53;;;25.00;47.90;;;;;;4994660;28;20392;-69
2023/07/07 04:48:56;;;;;;;3.27;2.97;;;25.00;48.00;;;;;;4994498;28;21355;-68
2023/07/07 04:51:22;;;;;;;2.10;1.90;;;25.00;47.90;;;;;;4993115;28;20503;-68
2023/07/07 04:53:48;;;;;;;4.30;2.63;;;25.00;47.90;;;;;;4993587;28;20176;-66
2023/07/07 04:56:19;;;;;;;2.30;2.10;;;25.00;47.90;;;;;;4994660;28;20408;-67
2023/07/07 04:58:48;;;;;;;3.17;2.27;;;25.00;47.90;;;;;;4994793;28;20556;-68
2023/07/07 05:01:17;;;;;;;2.80;2.30;;;25.00;48.50;;;;;;4994501;28;20539;-67
2023/07/07 05:03:44;;;;;;;2.70;2.27;;;25.00;47.90;;;;;;4994665;28;20416;-68
2023/07/07 05:06:11;;;;;;;3.47;2.40;;;25.00;47.90;;;;;;4993649;28;20408;-68
2023/07/07 05:08:39;;;;;;;3.10;2.73;;;25.00;47.90;;;;;;4994242;28;20451;-68
2023/07/07 05:11:06;;;;;;;2.30;2.10;;;25.00;47.90;;;;;;4994265;28;20408;-67
2023/07/07 05:13:33;;;;;;;4.87;2.47;;;25.10;47.90;;;;;;4994427;28;20404;-68
2023/07/07 05:16:04;;;;;;;2.53;2.33;;;25.10;47.90;;;;;;4994251;28;20408;-68
2023/07/07 05:18:30;;;;;;;2.20;2.00;;;25.00;47.80;;;;;;4993950;28;20436;-67
2023/07/07 05:20:56;;;;;;;2.90;2.50;;;25.10;47.90;;;;;;4994251;28;20500;-68
2023/07/07 05:23:21;;;;;;;2.40;2.13;;;25.10;47.80;;;;;;4994181;28;20416;-67
2023/07/07 05:25:47;;;;;;;2.37;2.17;;;25.10;47.80;;;;;;4993943;28;20529;-68
2023/07/07 05:28:13;;;;;;;3.00;2.13;;;25.10;47.80;;;;;;4993551;28;20196;-68
2023/07/07 05:30:39;;;;;;;2.57;2.37;;;25.10;47.80;;;;;;4993603;28;20173;-68
2023/07/07 05:33:05;;;;;;;3.57;2.00;;;25.10;47.80;;;;;;4993518;28;20169;-68
2023/07/07 05:35:30;;;;;;;3.90;2.70;;;25.10;47.80;;;;;;4993656;28;20427;-68
2023/07/07 05:37:56;;;;;;;2.93;2.20;;;25.10;47.80;;;;;;4993289;28;20243;-68
2023/07/07 05:40:22;;;;;;;2.73;2.30;;;25.10;47.80;;;;;;4993515;28;20673;-67
2023/07/07 05:42:47;;;;;;;2.67;2.47;;;25.10;47.80;;;;;;4993417;28;20173;-68
2023/07/07 05:45:13;;;;;;;2.50;2.20;;;25.10;47.80;;;;;;4993710;28;20173;-68
2023/07/07 05:47:39;;;;;;;2.90;2.60;;;25.10;47.80;;;;;;4993160;28;20201;-68
2023/07/07 05:50:05;;;;;;;2.80;2.10;;;25.10;47.80;;;;;;4993174;28;20239;-69
2023/07/07 05:52:31;;;;;;;2.77;2.27;;;25.10;47.80;;;;;;4993160;28;20216;-69
2023/07/07 05:54:57;;;;;;;2.93;2.47;;;25.10;47.80;;;;;;4991848;28;20487;-67
2023/07/07 05:57:23;;;;;;;2.37;2.17;;;25.10;48.40;;;;;;4993027;28;20196;-68
2023/07/07 05:59:49;;;;;;;2.50;2.30;;;25.10;47.90;;;;;;4993070;28;20416;-68
2023/07/07 06:02:14;;;;;;;2.33;1.97;;;25.10;47.80;;;;;;4992945;28;20200;-67
2023/07/07 06:04:40;;;;;;;2.83;2.63;;;25.10;47.80;;;;;;4993061;28;20165;-67
2023/07/07 06:07:06;;;;;;;2.80;2.57;;;25.10;47.80;;;;;;4992931;28;20197;-69
2023/07/07 06:09:31;;;;;;;2.37;2.00;;;25.10;47.80;;;;;;4992886;28;20275;-68
2023/07/07 06:11:57;;;;;;;3.07;2.77;;;25.10;47.90;;;;;;4992832;28;20899;-68
2023/07/07 06:14:23;;;;;;;2.40;2.20;;;25.20;47.90;;;;;;4991472;28;20188;-68
2023/07/07 06:16:48;;;;;;;2.70;2.47;;;25.10;47.80;;;;;;4992725;28;20562;-68
2023/07/07 06:19:14;;;;;;;2.83;2.37;;;25.20;47.90;;;;;;4992713;28;20177;-68
2023/07/07 06:21:39;;;;;;;3.47;2.00;;;25.20;47.90;;;;;;4992763;28;20600;-67
2023/07/07 06:24:05;;;;;;;2.70;2.30;;;25.20;47.90;;;;;;4992660;28;20196;-68
2023/07/07 06:26:31;;;;;;;3.23;1.97;;;25.20;47.90;;;;;;4992561;28;20173;-67
2023/07/07 06:28:56;;;;;;;2.80;2.30;;;25.20;47.90;;;;;;4992578;28;20251;-69
2023/07/07 06:31:22;;;;;;;3.70;2.77;;;25.20;47.90;;;;;;4992509;28;20165;-68
2023/07/07 06:33:48;;;;;;;2.87;2.50;;;25.20;47.90;;;;;;4992605;28;20177;-68
2023/07/07 06:36:14;;;;;;;3.60;2.30;;;25.20;47.80;;;;;;4992663;28;20499;-66
2023/07/07 06:38:40;;;;;;;3.53;2.83;;;25.20;47.80;;;;;;4992458;28;20863;-67
2023/07/07 06:41:10;;;;;;;2.37;2.00;;;25.20;48.10;;;;;;4992843;28;20228;-67
2023/07/07 06:43:35;;;;;;;2.43;2.23;;;25.20;47.80;;;;;;4992476;28;20423;-66
2023/07/07 06:46:01;;;;;;;3.47;2.60;;;25.20;47.90;;;;;;4992453;28;20884;-67
2023/07/07 06:48:27;;;;;;;3.20;2.63;;;25.20;47.80;;;;;;4992338;28;20209;-68
2023/07/07 06:50:52;;;;;;;3.67;2.77;;;25.20;48.40;;;;;;4992752;28;20180;-67
2023/07/07 06:53:18;;;;;;;2.67;2.47;;;25.20;47.80;;;;;;4992500;28;20631;-68
2023/07/07 06:55:43;;;;;;;3.30;2.90;;;25.20;47.80;;;;;;4992380;28;20169;-67
2023/07/07 06:58:12;;;;;;;2.90;2.63;;;25.20;48.40;;;;;;4992351;28;20540;-67
2023/07/07 07:00:38;;;;;;;3.10;2.13;;;25.20;47.90;;;;;;4992347;28;20191;-66
2023/07/07 07:03:03;;;;;;;2.23;2.03;;;25.20;47.90;;;;;;4992301;28;20404;-67
2023/07/07 07:05:29;;;;;;;2.57;2.37;;;25.20;47.90;;;;;;4992291;28;20285;-67
2023/07/07 07:07:54;;;;;;;2.50;2.30;;;25.20;47.90;;;;;;4992183;28;20192;-68
2023/07/07 07:10:20;;;;;;;2.73;2.53;;;25.20;47.90;;;;;;4992208;28;20251;-69
2023/07/07 07:12:47;;;;;;;2.83;2.00;;;25.20;47.90;;;;;;4992526;28;20208;-67
2023/07/07 07:15:13;;;;;;;2.73;2.27;;;25.20;47.90;;;;;;4992281;28;20910;-66
2023/07/07 07:17:39;;;;;;;2.60;2.30;;;25.20;47.90;;;;;;4992150;28;20530;-67
2023/07/07 07:20:07;;;;;;;2.57;2.00;;;25.20;47.90;;;;;;4992290;28;20212;-67
2023/07/07 07:22:32;;;;;;;2.13;1.93;;;25.20;47.90;;;;;;4990894;28;20746;-67
2023/07/07 07:24:58;;;;;;;2.47;2.27;;;25.20;47.90;;;;;;4992419;28;20478;-67
2023/07/07 07:27:23;;;;;;;3.23;2.43;;;25.20;47.90;;;;;;4992259;28;20208;-68
2023/07/07 07:29:51;;;;;;;4.23;2.00;;;25.20;47.90;;;;;;4994633;28;20204;-68
2023/07/07 07:32:17;;;;;;;2.60;1.97;;;25.20;47.90;;;;;;4995762;28;20610;-66
2023/07/07 07:34:43;;;;;;;2.30;2.07;;;25.20;47.90;;;;;;4995690;28;20404;-68
2023/07/07 07:37:09;;;;;;;2.43;2.20;;;25.20;47.90;;;;;;4995636;28;20515;-68
2023/07/07 07:39:35;;;;;;;2.47;2.27;;;25.20;47.90;;;;;;4995861;28;20988;-68
2023/07/07 07:42:03;;;;;;;2.50;2.10;;;25.20;47.90;;;;;;4995527;28;20181;-66
2023/07/07 07:44:29;;;;;;;2.40;2.20;;;25.20;47.90;;;;;;4995536;28;20423;-67
2023/07/07 07:46:57;;;;;;;2.73;2.50;;;25.20;47.90;;;;;;4995399;28;20490;-68
2023/07/07 07:49:24;;;;;;;2.60;2.40;;;25.20;47.90;;;;;;4995633;28;20964;-68
2023/07/07 07:51:50;;;;;;;2.23;1.77;;;25.20;47.90;;;;;;4995437;28;20879;-66
2023/07/07 07:54:18;;;;;;;3.20;2.13;;;25.20;47.90;;;;;;4995524;28;20432;-67
2023/07/07 07:56:44;;;;;;;2.87;2.50;;;25.20;47.90;;;;;;4995238;28;20288;-66
2023/07/07 07:59:10;;;;;;;3.07;2.10;;;25.20;48.50;;;;;;4995117;28;20447;-67
2023/07/07 08:01:36;;;;;;;2.70;2.33;;;25.20;47.90;;;;;;4995117;28;20436;-67
2023/07/07 08:04:03;;;;;;;4.37;2.60;;;25.20;47.90;;;;;;4995203;28;20411;-66
2023/07/07 08:06:29;;;;;;;2.50;2.30;;;25.20;47.90;;;;;;4994171;28;20642;-66
2023/07/07 08:08:55;;;;;;;2.57;2.20;;;25.20;47.90;;;;;;4995029;28;20452;-69
2023/07/07 08:11:46;;;;;;;2.43;2.23;;;25.20;47.90;;;;;;4995308;28;20173;-69
2023/07/07 08:14:20;;;;;;;4.33;2.67;;;25.20;47.90;;;;;;4994871;28;20177;-68
2023/07/07 08:16:46;;;;;;;2.40;2.20;;;25.20;47.90;;;;;;4994882;28;20510;-68
2023/07/07 08:19:13;;;;;;;2.40;2.20;;;25.20;48.00;;;;;;4994941;28;20416;-68
2023/07/07 08:21:38;;;;;;;2.30;2.10;;;25.20;47.90;;;;;;4994927;28;20507;-68
2023/07/07 08:24:05;;;;;;;2.83;2.40;;;25.20;47.90;;;;;;4994879;28;20538;-68
2023/07/07 08:26:32;;;;;;;2.60;2.30;;;25.20;47.90;;;;;;4994814;28;20566;-68
2023/07/07 08:28:57;;;;;;;2.60;2.40;;;25.20;47.90;;;;;;4994710;28;20456;-68
2023/07/07 08:31:23;;;;;;;2.30;2.07;;;25.20;48.00;;;;;;4994715;28;20412;-67
2023/07/07 08:33:49;;;;;;;2.40;2.20;;;25.20;48.00;;;;;;4994665;28;20165;-68
2023/07/07 08:36:15;;;;;;;2.60;2.40;;;25.20;48.00;;;;;;4994580;28;20551;-68
2023/07/07 08:38:41;;;;;;;2.40;2.13;;;25.20;48.00;;;;;;4994508;28;20424;-68
2023/07/07 08:41:06;;;;;;;2.23;2.00;;;25.20;48.00;;;;;;4993371;28;20181;-68
2023/07/07 08:43:32;;;;;;;2.70;2.10;;;25.20;48.00;;;;;;4994513;28;20689;-67
2023/07/07 08:46:19;;;;;;;2.67;2.47;;;25.20;48.00;;;;;;4994479;28;20173;-68
2023/07/07 08:48:56;;;;;;;3.20;1.93;;;25.20;48.10;;;;;;4994322;28;20185;-68
2023/07/07 08:51:36;;;;;;;2.47;2.00;;;25.20;48.00;;;;;;4993143;28;20404;-68
2023/07/07 08:54:25;;;;;;;2.63;2.33;;;25.20;48.10;;;;;;4994368;28;20392;-68
2023/07/07 08:57:05;;;;;;;1.93;1.73;;;25.20;48.10;;;;;;4994276;28;20454;-68
2023/07/07 08:59:48;;;;;;;3.90;2.50;;;25.20;48.10;;;;;;4994283;28;20412;-68
2023/07/07 09:02:23;;;;;;;4.80;2.27;;;25.20;48.10;;;;;;4994091;28;20428;-68
2023/07/07 09:05:03;;;;;;;2.20;1.90;;;25.20;48.10;;;;;;4994050;28;20506;-66
2023/07/07 09:08:06;;;;;;;1.93;1.80;;;25.20;48.20;;;;;;4994162;28;20420;-67
2023/07/07 09:11:07;;;;;;;2.20;2.00;;;25.20;48.10;;;;;;4994217;28;20444;-67
2023/07/07 09:13:35;;;;;;;2.50;2.20;;;25.20;48.10;;;;;;4994063;28;20549;-67
2023/07/07 09:16:29;;;;;;;2.60;2.40;;;25.20;48.20;;;;;;4992564;28;20451;-68
2023/07/07 09:19:03;;;;;;;2.73;1.93;;;25.20;48.10;;;;;;4989288;28;20416;-68
2023/07/07 09:21:43;;;;;;;2.53;2.30;;;25.20;48.10;;;;;;4992520;28;20464;-67
2023/07/07 09:24:29;;;;;;;2.37;2.00;;;25.20;48.10;;;;;;4993758;28;20447;-67
2023/07/07 09:26:59;;;;;;;2.70;2.13;;;25.20;48.20;;;;;;4993664;28;20443;-67
2023/07/07 09:29:28;;;;;;;2.30;2.10;;;25.20;48.20;;;;;;4993819;28;20454;-67
2023/07/07 09:31:54;;;;;;;2.60;2.30;;;25.20;48.10;;;;;;4993607;28;20498;-67
2023/07/07 09:34:22;;;;;;;2.40;2.10;;;25.20;48.10;;;;;;4993479;28;20488;-66
2023/07/07 09:36:50;;;;;;;2.60;1.90;;;25.20;48.10;;;;;;4993465;28;20942;-66
2023/07/07 09:39:49;;;;;;;2.80;2.10;;;25.20;48.10;;;;;;4993662;28;20412;-66
2023/07/07 09:42:24;;;;;;;3.40;2.50;;;25.20;48.20;;;;;;4993158;28;20822;-68
2023/07/07 09:45:08;;;;;;;2.57;2.00;;;25.20;48.20;;;;;;4993632;28;20754;-67
2023/07/07 09:47:48;;;;;;;3.00;2.30;;;25.20;48.20;;;;;;4993460;28;20420;-68
2023/07/07 09:50:22;;;;;;;2.20;2.00;;;25.20;48.20;;;;;;4993142;28;20436;-67
2023/07/07 09:52:54;;;;;;;2.83;1.90;;;25.20;48.70;;;;;;4993200;28;20826;-68
2023/07/07 09:55:22;;;;;;;2.40;2.20;;;25.20;48.20;;;;;;4993466;28;20396;-68
2023/07/07 09:58:23;;;;;;;3.87;2.63;;;25.20;48.20;;;;;;4992333;28;20432;-68
2023/07/07 10:00:53;;;;;;;2.10;1.90;;;25.30;48.20;;;;;;4992831;28;20482;-67
2023/07/07 10:03:35;;;;;;;2.20;2.00;;;25.20;48.20;;;;;;4993036;28;20420;-68
2023/07/07 10:06:04;;;;;;;1.87;1.70;;;25.20;48.20;;;;;;4992927;28;20404;-68
2023/07/07 10:08:30;;;;;;;2.53;2.10;;;25.20;48.20;;;;;;4993038;28;20436;-68
2023/07/07 10:11:29;;;;;;;2.00;1.70;;;25.20;48.20;;;;;;4993121;28;20419;-67
2023/07/07 10:13:56;;;;;;;2.03;1.77;;;25.30;48.30;;;;;;4988240;28;20212;-67
2023/07/07 10:16:30;;;;;;;2.53;2.07;;;25.20;48.20;;;;;;4993036;28;20409;-67
2023/07/07 10:19:11;;;;;;;2.40;2.20;;;25.20;48.20;;;;;;4992826;28;20414;-68
2023/07/07 10:21:37;;;;;;;2.67;1.90;;;25.20;48.20;;;;;;4993186;28;20748;-66
2023/07/07 10:24:03;;;;;;;2.20;1.77;;;25.20;48.20;;;;;;4992663;28;20431;-68
2023/07/07 10:26:29;;;;;;;2.20;2.00;;;25.20;48.20;;;;;;4992661;28;20416;-67
2023/07/07 10:28:59;;;;;;;3.40;2.43;;;25.20;48.20;;;;;;4992654;28;20193;-67
2023/07/07 10:31:26;;;;;;;2.50;2.03;;;25.20;48.20;;;;;;4992674;28;20176;-68
2023/07/07 10:33:57;;;;;;;2.60;2.33;;;25.20;48.20;;;;;;4992728;28;20563;-68
2023/07/07 10:36:33;;;;;;;2.50;2.30;;;25.20;48.20;;;;;;4992538;28;20424;-68
2023/07/07 10:38:59;;;;;;;2.30;1.90;;;25.30;48.30;;;;;;4992527;28;20408;-67
2023/07/07 10:41:26;;;;;;;1.90;1.73;;;25.30;48.20;;;;;;4992860;28;20412;-67
2023/07/07 10:43:53;;;;;;;2.23;2.03;;;25.30;48.20;;;;;;4992536;28;20904;-68
2023/07/07 10:46:19;;;;;;;2.20;2.00;;;25.30;48.20;;;;;;4992475;28;20420;-67
2023/07/07 10:48:46;;;;;;;3.57;2.67;;;25.30;48.20;;;;;;4992478;28;20478;-67
2023/07/07 10:51:27;;;;;;;2.70;2.10;;;25.30;48.20;;;;;;4992440;28;20471;-67
2023/07/07 10:54:15;;;;;;;2.90;2.27;;;25.30;48.20;;;;;;4992446;28;20820;-69
2023/07/07 10:56:52;;;;;;;2.30;2.10;;;25.30;48.20;;;;;;4992555;28;20437;-67
2023/07/07 10:59:27;;;;;;;3.47;2.00;;;25.30;48.30;;;;;;4992646;28;20432;-68
2023/07/07 11:02:04;;;;;;;2.63;2.20;;;25.30;48.30;;;;;;4992197;28;20438;-68
2023/07/07 11:04:39;;;;;;;2.70;2.30;;;25.30;48.30;;;;;;4994735;28;20399;-67
2023/07/07 11:07:52;;;;;;;3.77;2.10;;;25.30;48.30;;;;;;4996101;28;20432;-68
2023/07/07 11:10:41;;;;;;;3.60;2.03;;;25.30;48.30;;;;;;4936471;28;20478;-67
2023/07/07 11:13:21;;;;;;;2.30;2.10;;;25.30;48.30;;;;;;4996010;28;20489;-67
2023/07/07 11:16:02;;;;;;;3.47;2.27;;;25.20;48.20;;;;;;4996128;28;20388;-68
2023/07/07 11:18:58;;;;;;;2.30;2.10;;;25.30;48.90;;;;;;4995788;28;20435;-69
2023/07/07 11:21:46;;;;;;;2.60;2.13;;;25.30;48.30;;;;;;4963683;28;20515;-69
2023/07/07 11:24:20;;;;;;;5.07;2.53;;;25.30;48.30;;;;;;4996098;28;20491;-68
2023/07/07 11:27:18;;;;;;;2.60;2.40;;;25.30;48.30;;;;;;4995848;28;20480;-69
2023/07/07 11:30:10;;;;;;;3.73;1.97;;;25.20;48.30;;;;;;4996093;28;20444;-69
2023/07/07 11:33:00;;;;;;;2.17;1.97;;;25.30;48.30;;;;;;4996071;28;20528;-68
2023/07/07 11:35:37;;;;;;;2.30;2.03;;;25.30;48.30;;;;;;4994967;28;20763;-69
2023/07/07 11:38:32;;;;;;;3.40;2.70;;;25.20;48.30;;;;;;4994389;28;20474;-68
2023/07/07 11:41:08;;;;;;;2.67;2.47;;;25.20;48.30;;;;;;4925892;28;20811;-68
2023/07/07 11:43:46;;;;;;;2.93;2.20;;;25.30;48.30;;;;;;4995564;28;20419;-68
2023/07/07 11:46:44;;;;;;;2.50;2.00;;;25.30;48.30;;;;;;4995845;28;20404;-68
2023/07/07 11:49:52;;;;;;;3.10;2.37;;;25.30;48.40;;;;;;4994165;28;20829;-68
2023/07/07 11:52:55;;;;;;;3.00;2.33;;;25.30;48.40;;;;;;4916235;29;20424;-68
2023/07/07 11:56:01;;;;;;;3.07;2.43;;;25.30;48.40;;;;;;4995245;28;20767;-72
2023/07/07 11:58:45;;;;;;;4.10;2.60;;;25.30;48.40;;;;;;4995339;28;20986;-67
2023/07/07 12:01:25;;;;;;;3.57;2.43;;;25.20;48.40;;;;;;4995145;28;20769;-68
2023/07/07 12:03:59;;;;;;;2.23;2.03;;;25.30;48.50;;;;;;4995149;28;20395;-67
2023/07/07 12:06:48;;;;;;;2.60;2.40;;;25.20;48.40;;;;;;4995145;28;20451;-67
2023/07/07 12:09:35;;;;;;;2.93;2.63;;;25.30;48.50;;;;;;4994994;28;20529;-67
2023/07/07 12:12:27;;;;;;;2.67;2.40;;;25.30;48.50;;;;;;4995115;28;20411;-67
2023/07/07 12:15:00;;;;;;;2.97;1.97;;;25.30;48.50;;;;;;4995166;28;20396;-68
2023/07/07 12:17:32;;;;;;;2.70;2.33;;;25.30;48.50;;;;;;4995262;28;20428;-67
2023/07/07 12:20:24;;;;;;;2.47;2.27;;;25.30;48.50;;;;;;4994961;28;20878;-68
2023/07/07 12:22:50;;;;;;;3.50;2.97;;;25.30;48.50;;;;;;4994654;28;20412;-67
2023/07/07 12:25:28;;;;;;;2.60;2.40;;;25.20;48.50;;;;;;4994770;28;20503;-67
2023/07/07 12:27:55;;;;;;;2.70;2.43;;;25.30;48.50;;;;;;4993362;28;20472;-67
2023/07/07 12:30:27;;;;;;;3.50;2.93;;;25.30;48.50;;;;;;4994550;28;20467;-67
2023/07/07 12:32:54;;;;;;;2.60;2.30;;;25.30;48.60;;;;;;4994982;28;20419;-68
2023/07/07 12:35:30;;;;;;;3.50;2.23;;;25.30;48.50;;;;;;4994556;28;20416;-67
2023/07/07 12:37:57;;;;;;;3.00;2.70;;;25.30;48.50;;;;;;4994412;28;20427;-67
2023/07/07 12:40:23;;;;;;;2.63;2.23;;;25.30;48.60;;;;;;4994676;28;20416;-67
2023/07/07 12:43:07;;;;;;;3.27;2.97;;;25.30;48.50;;;;;;4994444;28;20499;-67
2023/07/07 12:45:37;;;;;;;3.43;2.70;;;25.30;48.50;;;;;;4994475;28;20389;-68
2023/07/07 12:48:06;;;;;;;3.40;2.60;;;25.30;48.50;;;;;;4994292;28;20842;-68
2023/07/07 12:50:38;;;;;;;3.70;2.50;;;25.30;48.50;;;;;;4994204;28;20510;-68
2023/07/07 12:53:10;;;;;;;2.80;2.60;;;25.30;48.50;;;;;;4994288;28;20434;-66
2023/07/07 12:55:38;;;;;;;2.90;2.60;;;25.30;48.50;;;;;;4994302;28;20758;-67
2023/07/07 12:58:07;;;;;;;2.63;2.37;;;25.30;48.50;;;;;;4993959;28;20431;-68
2023/07/07 13:00:41;;;;;;;3.10;2.53;;;25.30;48.50;;;;;;4993783;28;20442;-67
2023/07/07 13:03:09;;;;;;;2.70;2.27;;;25.30;48.50;;;;;;4993211;28;20416;-67
2023/07/07 13:05:49;;;;;;;3.00;2.80;;;25.30;48.50;;;;;;4993214;28;20788;-67
2023/07/07 13:08:37;;;;;;;3.50;2.73;;;25.30;48.50;;;;;;4993083;28;20435;-67